Date,TemperatureHighF,TemperatureAvgF,TemperatureLowF,DewpointHighF,DewpointAvgF,DewpointLowF,HumidityHigh,HumidityAvg,HumidityLow,PressureMaxIn,PressureMinIn,WindSpeedMaxMPH,WindSpeedAvgMPH,GustSpeedMaxMPH,PrecipitationSumIn
2013-11-1,64,50,40,46,41,38,91,72,46,30.04,29.67,10,1,0,0.00
2013-11-2,60,48,37,40,35,32,87,64,34,30.23,30.05,6,1,0,0.00
2013-11-3,53,46,42,42,35,33,73,67,62,30.07,29.75,16,5,0,0.00
2013-11-4,62,54,48,53,46,42,89,74,53,29.96,29.71,14,2,0,0.00
2013-11-5,60,54,39,60,53,37,98,95,88,30.00,29.73,11,4,0,0.11
2013-11-6,48,40,35,40,35,32,94,84,64,30.29,30.00,15,2,0,0.00
2013-11-7,60,45,33,40,36,31,95,74,42,30.40,30.22,7,1,0,0.00
2013-11-8,65,52,42,40,37,34,81,58,33,30.22,29.78,22,5,0,0.00
2013-11-9,64,48,39,46,40,36,89,75,50,30.20,29.90,5,1,0,0.00
2013-11-10,62,52,39,50,45,37,94,78,54,30.29,30.15,9,2,0,0.00
2013-11-11,57,52,48,53,49,47,97,89,84,30.15,30.08,7,1,0,0.00
2013-11-12,22,20,20,18,16,15,87,84,82,30.69,30.66,0,0,0,0.00
2013-11-13,50,35,19,28,21,15,86,58,41,30.66,30.13,14,4,0,0.00
2013-11-14,55,43,34,35,30,20,74,60,44,30.13,29.87,12,4,0,0.00
2013-11-15,60,48,35,48,40,31,92,75,51,29.89,29.58,14,3,0,0.00
2013-11-16,77,63,52,56,52,44,92,71,37,29.58,29.27,15,6,0,0.00
2013-11-17,68,56,42,43,31,16,75,42,16,30.01,29.28,14,3,0,0.00
2013-11-18,59,39,31,27,26,24,83,64,27,30.22,29.99,7,0,0,0.00
2013-11-19,52,51,50,29,28,27,44,41,38,29.82,29.80,12,7,20,0.00
2013-11-20,60,54,49,50,41,29,79,63,44,29.81,29.69,16,5,18,0.00
2013-11-21,53,37,24,51,34,20,97,91,79,30.46,29.79,19,7,27,0.24
2013-11-22,28,25,22,20,18,16,86,74,59,30.65,30.45,15,6,20,0.00
2013-11-23,34,29,21,21,17,13,73,61,52,30.74,30.61,14,5,19,0.00
2013-11-24,20,20,20,14,13,12,74,73,72,30.70,30.67,7,3,9,0.00
2013-11-26,25,23,19,15,14,12,73,67,63,30.44,30.37,3,1,4,0.00
2013-11-27,37,26,11,21,15,8,87,66,44,30.44,30.16,9,2,13,0.00
2013-11-28,48,33,20,30,24,18,93,72,48,30.39,30.14,8,2,12,0.00
2013-11-29,53,38,22,35,28,19,91,69,46,30.40,30.12,14,3,19,0.00
2013-11-30,60,41,29,38,33,27,97,76,44,30.12,30.02,7,1,12,0.00